To NAV CANADA Home Page Login to a new session Search on AWWS site Feedback and Comments Disclaimer Vers la page française équivalente Tips FAQ What's new on the site To the Forecasts and Observations / NOTAM section To "File a Flight Plan" website Publications and other links Update of the User's profile FIC Telephone Numbers My Weather Data Folder Route Weather Data Regional Weather Data Local Weather Data To the Forecasts and Observations / NOTAM section
Request Generated 09/28/2016 at 17:00:43 UTC . Weather information available at that time is displayed.

METAR/TAF

DEASE LAKE/BC    (show WxCam)

SPECI CYDL 281646Z AUTO 00000KT 9SM -RA BKN002 BKN013 BKN037 OVC044
02/02 A3024 RMK SLP264=
SPECI CYDL 281643Z AUTO 00000KT 9SM -RA SCT002 BKN013 BKN037 OVC044
02/02 A3024 RMK SLP264=
METAR CYDL 281600Z AUTO 00000KT 9SM -RA FEW002 SCT015 BKN038 OVC045
01/01 A3023 RMK SLP263=
SPECI CYDL 281548Z AUTO 00000KT 9SM -RA SCT002 BKN038 OVC045 01/01
A3023 RMK SLP262=
SPECI CYDL 281520Z AUTO 00000KT 9SM -RA BKN002 BKN011 BKN034 OVC046
01/01 A3023 RMK SLP262=
SPECI CYDL 281516Z AUTO 00000KT 9SM -RA SCT002 BKN011 BKN034 OVC046
01/01 A3023 RMK SLP262=
METAR CYDL 281500Z AUTO 00000KT 9SM -RA BKN032 OVC046 01/01 A3023 RMK
SLP261=
METAR CYDL 281400Z AUTO 00000KT 9SM -RA OVC028 01/01 A3023 RMK
SLP260=

TAF CYDL 281538Z 2816/2902 VRB03KT P6SM OVC050 TEMPO 2816/2822 P6SM
-RA BKN030
FM282200 30006KT P6SM BKN060
RMK FCST BASED ON AUTO OBS. NXT FCST BY 281800Z=
Your time UTC time
Weather data provided by Environment Canada and NAV CANADA